Time;durP1;ratioP1;P1;durP2;ratioP2;P2;SDS_P1;SDS_P2;PMS_P1;PMS_P2;Temp;Humidity;BMP_temperature;BMP_pressure;BME280_temperature;BME280_humidity;BME280_pressure;Samples;Min_cycle;Max_cycle;Signal;HPM_P1;HPM_P2
2024/03/08 00:02:36;;;;;;;2.83;1.75;;;;;;;;;;6243111;28;20076;-76
2024/03/08 00:05:39;;;;;;;2.47;1.55;;;;;;;;;;6245902;28;20040;-76
2024/03/08 00:08:41;;;;;;;3.13;1.55;;;;;;;;;;6247446;28;20128;-76
2024/03/08 00:11:46;;;;;;;5.40;2.05;;;;;;;;;;6233275;28;20044;-76
2024/03/08 00:14:49;;;;;;;2.20;1.50;;;;;;;;;;6249785;28;20045;-75
2024/03/08 00:17:51;;;;;;;2.03;1.35;;;;;;;;;;6248319;28;20100;-75
2024/03/08 00:20:53;;;;;;;2.05;1.52;;;;;;;;;;6246069;28;20634;-75
2024/03/08 00:23:56;;;;;;;2.13;1.27;;;;;;;;;;6247882;28;20739;-74
2024/03/08 00:26:58;;;;;;;1.67;1.48;;;;;;;;;;6248531;28;20739;-75
2024/03/08 00:30:01;;;;;;;2.05;1.85;;;;;;;;;;6237458;28;20084;-75
2024/03/08 00:33:04;;;;;;;1.98;1.38;;;;;;;;;;6248768;28;20091;-75
2024/03/08 00:36:07;;;;;;;1.65;1.55;;;;;;;;;;6240613;28;20048;-75
2024/03/08 00:39:11;;;;;;;1.75;1.60;;;;;;;;;;6245389;28;20653;-75
2024/03/08 00:42:17;;;;;;;1.70;1.23;;;;;;;;;;6245821;28;20122;-75
2024/03/08 00:45:20;;;;;;;2.10;1.90;;;;;;;;;;6246150;28;20051;-75
2024/03/08 00:48:22;;;;;;;3.85;3.60;;;;;;;;;;6236499;28;20915;-75
2024/03/08 00:51:25;;;;;;;2.75;1.67;;;;;;;;;;6256706;28;20049;-74
2024/03/08 00:54:28;;;;;;;3.33;1.83;;;;;;;;;;6246492;28;20042;-75
2024/03/08 00:57:30;;;;;;;3.60;1.67;;;;;;;;;;6266851;28;20042;-74
2024/03/08 01:00:33;;;;;;;7.65;3.97;;;;;;;;;;6255851;28;20045;-75
2024/03/08 01:03:35;;;;;;;3.63;1.65;;;;;;;;;;6256716;28;20045;-75
2024/03/08 01:06:38;;;;;;;3.50;1.98;;;;;;;;;;6242685;28;20532;-74
2024/03/08 01:09:40;;;;;;;5.68;2.10;;;;;;;;;;6258095;28;20040;-74
2024/03/08 01:12:45;;;;;;;2.58;1.45;;;;;;;;;;6256506;28;20285;-75
2024/03/08 01:15:47;;;;;;;;;;;;;;;;;;6251646;28;20045;-75
2024/03/08 01:18:50;;;;;;;3.42;2.28;;;;;;;;;;6271422;28;19960;-75
2024/03/08 01:21:52;;;;;;;5.15;2.63;;;;;;;;;;6267429;28;20049;-75
2024/03/08 01:24:56;;;;;;;6.25;4.13;;;;;;;;;;6255652;28;20510;-75
2024/03/08 01:27:59;;;;;;;4.32;2.85;;;;;;;;;;6273897;28;20045;-74
2024/03/08 01:31:03;;;;;;;5.28;3.50;;;;;;;;;;6251637;28;20071;-74
2024/03/08 01:34:05;;;;;;;4.63;2.35;;;;;;;;;;6247250;28;20064;-74
2024/03/08 01:37:07;;;;;;;3.30;2.15;;;;;;;;;;6271160;28;20048;-75
2024/03/08 01:40:10;;;;;;;6.32;3.35;;;;;;;;;;6246019;28;20094;-75
2024/03/08 01:43:22;;;;;;;6.43;3.00;;;;;;;;;;6243487;28;20036;-75
2024/03/08 01:46:28;;;;;;;4.50;3.42;;;;;;;;;;6256371;28;20052;-76
2024/03/08 01:49:30;;;;;;;4.15;2.72;;;;;;;;;;6229664;28;20136;-75
2024/03/08 01:52:34;;;;;;;3.05;2.20;;;;;;;;;;6243445;28;20160;-75
2024/03/08 01:55:36;;;;;;;3.50;2.33;;;;;;;;;;6249442;28;20120;-75
2024/03/08 01:58:44;;;;;;;4.28;2.35;;;;;;;;;;6250795;28;20077;-76
2024/03/08 02:01:47;;;;;;;3.65;2.30;;;;;;;;;;6245197;28;20048;-75
2024/03/08 02:04:52;;;;;;;4.97;3.00;;;;;;;;;;6261781;28;20059;-76
2024/03/08 02:07:55;;;;;;;4.72;3.30;;;;;;;;;;6256989;28;20045;-76
2024/03/08 02:10:57;;;;;;;3.35;2.70;;;;;;;;;;6255387;28;20055;-76
2024/03/08 02:14:00;;;;;;;4.03;2.38;;;;;;;;;;6261690;28;20036;-76
2024/03/08 02:17:02;;;;;;;4.82;2.85;;;;;;;;;;6250496;28;20530;-76
2024/03/08 02:20:05;;;;;;;4.13;2.25;;;;;;;;;;6250029;28;20132;-76
2024/03/08 02:23:09;;;;;;;4.20;3.10;;;;;;;;;;6243490;28;20430;-76
2024/03/08 02:26:12;;;;;;;4.32;2.67;;;;;;;;;;6262564;28;20048;-76
2024/03/08 02:29:14;;;;;;;3.50;2.25;;;;;;;;;;6273788;28;20822;-76
2024/03/08 02:32:17;;;;;;;5.28;3.33;;;;;;;;;;6259073;28;20055;-76
2024/03/08 02:35:19;;;;;;;4.28;2.95;;;;;;;;;;6249582;28;20047;-76
2024/03/08 02:38:31;;;;;;;4.22;2.83;;;;;;;;;;6251220;28;20549;-76
2024/03/08 02:41:33;;;;;;;4.90;2.40;;;;;;;;;;6259663;28;20048;-77
2024/03/08 02:44:35;;;;;;;6.00;2.60;;;;;;;;;;6257316;28;20462;-75
2024/03/08 02:47:38;;;;;;;8.30;3.20;;;;;;;;;;6251258;28;20053;-76
2024/03/08 02:50:42;;;;;;;5.38;2.85;;;;;;;;;;6253027;28;20166;-76
2024/03/08 02:53:44;;;;;;;6.70;3.65;;;;;;;;;;6260262;28;20041;-75
2024/03/08 02:56:46;;;;;;;6.18;4.10;;;;;;;;;;6252416;28;20297;-76
2024/03/08 02:59:48;;;;;;;4.68;2.75;;;;;;;;;;6254701;28;20063;-76
2024/03/08 03:02:54;;;;;;;5.47;3.38;;;;;;;;;;6267685;28;20066;-76
2024/03/08 03:05:56;;;;;;;6.55;4.15;;;;;;;;;;6230352;28;20056;-75
2024/03/08 03:08:58;;;;;;;4.50;3.15;;;;;;;;;;6271350;28;20067;-75
2024/03/08 03:12:03;;;;;;;6.03;3.08;;;;;;;;;;6260892;28;20834;-76
2024/03/08 03:15:07;;;;;;;;;;;;;;;;;;6250480;28;20055;-76
2024/03/08 03:18:09;;;;;;;6.75;3.50;;;;;;;;;;6271862;28;19971;-75
2024/03/08 03:21:13;;;;;;;5.20;3.67;;;;;;;;;;6245323;28;20045;-75
2024/03/08 03:24:16;;;;;;;8.18;5.18;;;;;;;;;;6248040;28;20049;-75
2024/03/08 03:27:20;;;;;;;6.82;4.60;;;;;;;;;;6248056;28;20478;-75
2024/03/08 03:30:23;;;;;;;7.13;4.07;;;;;;;;;;6236414;28;20049;-74
2024/03/08 03:33:26;;;;;;;5.75;3.95;;;;;;;;;;6267927;28;20071;-74
2024/03/08 03:36:31;;;;;;;6.68;3.63;;;;;;;;;;6218977;28;20045;-74
2024/03/08 03:39:34;;;;;;;6.88;3.80;;;;;;;;;;6260039;28;20045;-75
2024/03/08 03:42:38;;;;;;;5.18;3.33;;;;;;;;;;6266008;28;20075;-75
2024/03/08 03:45:41;;;;;;;4.88;3.60;;;;;;;;;;6266340;28;20173;-75
2024/03/08 03:48:43;;;;;;;6.13;4.00;;;;;;;;;;6244795;28;20063;-76
2024/03/08 03:51:46;;;;;;;6.00;4.30;;;;;;;;;;6249790;28;20049;-75
2024/03/08 03:54:49;;;;;;;6.18;4.22;;;;;;;;;;6267402;28;20028;-76
2024/03/08 03:57:52;;;;;;;8.77;4.90;;;;;;;;;;6266230;28;20048;-76
2024/03/08 04:00:54;;;;;;;5.80;4.45;;;;;;;;;;6245445;28;20418;-76
2024/03/08 04:03:56;;;;;;;13.10;8.80;;;;;;;;;;6253328;28;20037;-76
2024/03/08 04:06:58;;;;;;;8.10;5.28;;;;;;;;;;6249299;28;20049;-76
2024/03/08 04:10:08;;;;;;;9.63;4.80;;;;;;;;;;6266039;28;20057;-75
2024/03/08 04:13:11;;;;;;;5.30;4.80;;;;;;;;;;6236853;28;20569;-76
2024/03/08 04:16:13;;;;;;;8.07;4.65;;;;;;;;;;6258149;28;20040;-76
2024/03/08 04:19:15;;;;;;;58.55;27.17;;;;;;;;;;6251808;28;20545;-76
2024/03/08 04:22:17;;;;;;;17.10;9.07;;;;;;;;;;6233838;28;20044;-76
2024/03/08 04:25:20;;;;;;;12.13;7.18;;;;;;;;;;6255716;28;20815;-76
2024/03/08 04:28:22;;;;;;;8.10;4.90;;;;;;;;;;6266365;28;20049;-76
2024/03/08 04:31:26;;;;;;;7.55;4.72;;;;;;;;;;6248803;28;20040;-76
2024/03/08 04:34:29;;;;;;;7.72;4.72;;;;;;;;;;6239765;28;20708;-76
2024/03/08 04:37:33;;;;;;;5.25;3.58;;;;;;;;;;6235452;28;20076;-76
2024/03/08 04:40:35;;;;;;;6.15;3.00;;;;;;;;;;6251792;28;20489;-76
2024/03/08 04:43:38;;;;;;;3.83;2.75;;;;;;;;;;6216714;28;20526;-75
2024/03/08 04:46:40;;;;;;;4.20;2.83;;;;;;;;;;6249008;28;20825;-75
2024/03/08 04:49:42;;;;;;;4.38;3.70;;;;;;;;;;6253938;28;20053;-75
2024/03/08 04:52:44;;;;;;;7.10;3.30;;;;;;;;;;6262086;28;20049;-76
2024/03/08 04:55:46;;;;;;;14.23;3.40;;;;;;;;;;6241297;28;20481;-75
2024/03/08 04:58:49;;;;;;;5.43;3.35;;;;;;;;;;6218452;28;20179;-75
2024/03/08 05:01:51;;;;;;;6.53;3.75;;;;;;;;;;6240118;28;20434;-75
2024/03/08 05:04:54;;;;;;;25.90;20.15;;;;;;;;;;6259482;28;20075;-75
2024/03/08 05:07:56;;;;;;;5.03;3.45;;;;;;;;;;6235897;28;20696;-75
2024/03/08 05:11:00;;;;;;;6.18;2.78;;;;;;;;;;6237332;28;20609;-75
2024/03/08 05:14:02;;;;;;;9.15;5.43;;;;;;;;;;6226016;28;20044;-75
2024/03/08 05:17:06;;;;;;;9.23;5.15;;;;;;;;;;6242531;28;20044;-75
2024/03/08 05:20:12;;;;;;;11.75;6.82;;;;;;;;;;6242573;28;20118;-76
2024/03/08 05:23:14;;;;;;;;;;;;;;;;;;6241134;28;20069;-75
2024/03/08 05:26:18;;;;;;;4.93;2.35;;;;;;;;;;6224124;28;19932;-75
2024/03/08 05:29:21;;;;;;;5.25;2.63;;;;;;;;;;6260998;28;20132;-75
2024/03/08 05:32:24;;;;;;;5.10;3.00;;;;;;;;;;6256625;28;20037;-75
2024/03/08 05:35:30;;;;;;;5.47;3.38;;;;;;;;;;6207535;28;20056;-75
2024/03/08 05:38:32;;;;;;;5.70;3.97;;;;;;;;;;6221806;28;20037;-76
2024/03/08 05:41:34;;;;;;;4.28;2.40;;;;;;;;;;6229437;28;20077;-76
2024/03/08 05:44:37;;;;;;;5.63;2.97;;;;;;;;;;6244381;28;20183;-77
2024/03/08 05:47:39;;;;;;;4.88;2.95;;;;;;;;;;6238770;28;20044;-76
2024/03/08 05:50:44;;;;;;;5.35;3.25;;;;;;;;;;6236266;28;20821;-75
2024/03/08 05:53:46;;;;;;;4.82;2.65;;;;;;;;;;6241396;28;20452;-75
2024/03/08 05:56:48;;;;;;;5.13;4.43;;;;;;;;;;6240235;28;20068;-76
2024/03/08 05:59:51;;;;;;;7.93;3.22;;;;;;;;;;6241357;28;20049;-75
2024/03/08 06:02:53;;;;;;;6.07;2.85;;;;;;;;;;6257933;28;20041;-75
2024/03/08 06:06:02;;;;;;;6.03;2.80;;;;;;;;;;6263896;28;20479;-76
2024/03/08 06:09:17;;;;;;;6.97;4.80;;;;;;;;;;6256706;28;20045;-75
2024/03/08 06:12:20;;;;;;;10.93;5.15;;;;;;;;;;6247736;28;20059;-75
2024/03/08 06:15:23;;;;;;;6.70;5.35;;;;;;;;;;6227931;28;20517;-76
2024/03/08 06:18:26;;;;;;;8.30;4.70;;;;;;;;;;6255661;28;20041;-75
2024/03/08 06:21:30;;;;;;;6.65;4.88;;;;;;;;;;6223132;28;20438;-75
2024/03/08 06:24:36;;;;;;;5.05;2.60;;;;;;;;;;6256254;28;20123;-75
2024/03/08 06:27:38;;;;;;;4.45;3.10;;;;;;;;;;6243637;28;20929;-76
2024/03/08 06:30:43;;;;;;;10.38;6.00;;;;;;;;;;6246694;28;20103;-75
2024/03/08 06:33:46;;;;;;;8.45;4.60;;;;;;;;;;6237835;28;20140;-76
2024/03/08 06:36:52;;;;;;;4.95;3.78;;;;;;;;;;6261681;28;20312;-76
2024/03/08 06:39:55;;;;;;;4.38;2.78;;;;;;;;;;6272713;28;20122;-75
2024/03/08 06:42:58;;;;;;;5.03;3.47;;;;;;;;;;6216539;28;20052;-75
2024/03/08 06:46:00;;;;;;;6.05;4.40;;;;;;;;;;6236002;28;20048;-75
2024/03/08 06:49:03;;;;;;;5.65;3.15;;;;;;;;;;6228245;28;20190;-76
2024/03/08 06:52:06;;;;;;;7.13;4.15;;;;;;;;;;6238957;28;20182;-76
2024/03/08 06:55:11;;;;;;;8.63;4.13;;;;;;;;;;6256758;28;20024;-75
2024/03/08 06:58:14;;;;;;;5.38;3.30;;;;;;;;;;6237625;28;20340;-76
2024/03/08 07:01:17;;;;;;;5.68;3.13;;;;;;;;;;6213562;28;20447;-76
2024/03/08 07:04:20;;;;;;;4.53;3.05;;;;;;;;;;6243803;28;20103;-76
2024/03/08 07:07:22;;;;;;;6.20;5.15;;;;;;;;;;6238412;28;20242;-76
2024/03/08 07:10:24;;;;;;;5.90;2.63;;;;;;;;;;6234273;28;20044;-76
2024/03/08 07:13:28;;;;;;;4.07;2.60;;;;;;;;;;6241220;28;20701;-76
2024/03/08 07:16:32;;;;;;;4.40;2.67;;;;;;;;;;6203895;28;20041;-77
2024/03/08 07:19:35;;;;;;;3.90;2.42;;;;;;;;;;6233937;28;20187;-76
2024/03/08 07:22:38;;;;;;;4.20;2.75;;;;;;;;;;6234334;28;20052;-77
2024/03/08 07:25:42;;;;;;;3.85;2.97;;;;;;;;;;6244816;28;20794;-77
2024/03/08 07:28:45;;;;;;;5.70;2.85;;;;;;;;;;6247905;28;20048;-77
2024/03/08 07:31:56;;;;;;;7.43;3.67;;;;;;;;;;6257587;28;20048;-76
2024/03/08 07:34:58;;;;;;;8.20;4.40;;;;;;;;;;6252170;28;20041;-77
2024/03/08 07:38:00;;;;;;;3.88;2.95;;;;;;;;;;6230409;28;20055;-76
2024/03/08 07:41:02;;;;;;;5.55;3.55;;;;;;;;;;6248654;28;20044;-75
2024/03/08 07:44:07;;;;;;;7.22;4.80;;;;;;;;;;6255130;28;20048;-79
2024/03/08 07:47:09;;;;;;;7.38;4.82;;;;;;;;;;6233553;28;20407;-78
2024/03/08 07:50:16;;;;;;;6.43;4.88;;;;;;;;;;6244853;28;20060;-75
2024/03/08 07:53:18;;;;;;;9.32;4.13;;;;;;;;;;6256193;28;20048;-76
2024/03/08 07:56:22;;;;;;;6.70;4.22;;;;;;;;;;6238598;28;20044;-77
2024/03/08 07:59:24;;;;;;;5.35;3.72;;;;;;;;;;6264648;28;20049;-80
2024/03/08 08:02:27;;;;;;;5.70;3.38;;;;;;;;;;6243639;28;20610;-79
2024/03/08 08:05:35;;;;;;;5.97;4.13;;;;;;;;;;6246033;28;20098;-77
2024/03/08 08:08:38;;;;;;;7.18;4.25;;;;;;;;;;6242133;28;20182;-75
2024/03/08 08:11:43;;;;;;;6.55;4.55;;;;;;;;;;6235936;28;20553;-76
2024/03/08 08:14:46;;;;;;;5.88;3.47;;;;;;;;;;6202359;28;20060;-76
2024/03/08 08:17:49;;;;;;;6.60;4.68;;;;;;;;;;6251090;28;20051;-76
2024/03/08 08:20:54;;;;;;;7.00;3.55;;;;;;;;;;6259830;28;20045;-77
2024/03/08 08:23:56;;;;;;;6.55;4.45;;;;;;;;;;6218293;28;20053;-78
2024/03/08 08:27:00;;;;;;;3.72;2.10;;;;;;;;;;6243777;28;20029;-78
2024/03/08 08:30:08;;;;;;;4.47;2.88;;;;;;;;;;6232793;28;20057;-79
2024/03/08 08:33:12;;;;;;;4.78;2.72;;;;;;;;;;6239067;28;20037;-76
2024/03/08 08:36:14;;;;;;;11.40;7.22;;;;;;;;;;6231778;28;20115;-81
2024/03/08 08:39:17;;;;;;;6.28;4.38;;;;;;;;;;6256084;28;20049;-76
2024/03/08 08:42:19;;;;;;;8.23;4.53;;;;;;;;;;6219649;28;20534;-77
2024/03/08 08:45:22;;;;;;;7.13;3.88;;;;;;;;;;6252070;28;20479;-78
2024/03/08 08:48:30;;;;;;;4.82;2.75;;;;;;;;;;6276696;28;20045;-79
2024/03/08 08:51:40;;;;;;;4.97;3.13;;;;;;;;;;6293519;28;20068;-78
2024/03/08 08:54:42;;;;;;;4.35;2.35;;;;;;;;;;6275947;28;20052;-79
2024/03/08 08:57:51;;;;;;;4.80;2.20;;;;;;;;;;6267433;28;20083;-78
2024/03/08 09:00:59;;;;;;;4.07;3.03;;;;;;;;;;6288926;28;20038;-76
2024/03/08 09:04:03;;;;;;;5.22;3.33;;;;;;;;;;6253288;28;20033;-77
2024/03/08 09:07:14;;;;;;;5.57;3.58;;;;;;;;;;6262293;28;20158;-78
2024/03/08 09:10:16;;;;;;;4.28;2.50;;;;;;;;;;6252407;28;20122;-77
2024/03/08 09:13:21;;;;;;;5.70;3.00;;;;;;;;;;6270118;28;20041;-78
2024/03/08 09:16:33;;;;;;;5.40;4.07;;;;;;;;;;6268270;28;20056;-77
2024/03/08 09:19:36;;;;;;;2.58;1.90;;;;;;;;;;6268835;28;20060;-78
2024/03/08 09:22:40;;;;;;;1.90;1.55;;;;;;;;;;6268976;28;20036;-77
2024/03/08 09:25:44;;;;;;;1.95;1.75;;;;;;;;;;6240839;28;20056;-77
2024/03/08 09:28:49;;;;;;;3.55;1.77;;;;;;;;;;6272551;28;20296;-77
2024/03/08 09:31:55;;;;;;;3.80;1.88;;;;;;;;;;6272766;28;20044;-78
2024/03/08 09:34:58;;;;;;;2.95;1.42;;;;;;;;;;6291563;28;20629;-77
2024/03/08 09:38:00;;;;;;;2.50;1.60;;;;;;;;;;6271978;28;20044;-78
2024/03/08 09:41:04;;;;;;;2.97;1.45;;;;;;;;;;6259268;28;20037;-78
2024/03/08 09:44:06;;;;;;;3.13;2.22;;;;;;;;;;6265894;28;20222;-77
2024/03/08 09:47:09;;;;;;;3.00;1.90;;;;;;;;;;6254632;28;20037;-78
2024/03/08 09:50:14;;;;;;;4.05;2.65;;;;;;;;;;6250397;28;20045;-76
2024/03/08 09:53:16;;;;;;;3.00;1.90;;;;;;;;;;6249525;28;20444;-78
2024/03/08 09:56:23;;;;;;;;;;;;;;;;;;6269119;28;20042;-78
2024/03/08 10:02:31;;;;;;;3.67;2.08;;;;;;;;;;6254442;28;20060;-77
2024/03/08 10:05:34;;;;;;;3.38;2.03;;;;;;;;;;6264719;28;20600;-78
2024/03/08 10:08:36;;;;;;;3.20;1.90;;;;;;;;;;6266095;28;20069;-78
2024/03/08 10:11:40;;;;;;;4.22;3.67;;;;;;;;;;6265458;28;20049;-78
2024/03/08 10:14:42;;;;;;;4.78;2.47;;;;;;;;;;6261859;28;20076;-78
2024/03/08 10:17:46;;;;;;;3.15;1.65;;;;;;;;;;6254852;28;20118;-78
2024/03/08 10:21:11;;;;;;;4.22;2.28;;;;;;;;;;6273628;28;20060;-77
2024/03/08 10:24:13;;;;;;;2.53;1.48;;;;;;;;;;6278616;28;20044;-76
2024/03/08 10:27:18;;;;;;;3.42;2.25;;;;;;;;;;6275419;28;20037;-78
2024/03/08 10:30:21;;;;;;;5.70;3.28;;;;;;;;;;6271538;28;20056;-77
2024/03/08 10:33:25;;;;;;;3.38;1.63;;;;;;;;;;6256795;28;20052;-77
2024/03/08 10:36:28;;;;;;;2.92;1.38;;;;;;;;;;6232184;28;20048;-79
2024/03/08 10:39:34;;;;;;;5.68;3.00;;;;;;;;;;6263090;28;20041;-77
2024/03/08 10:42:43;;;;;;;4.00;2.67;;;;;;;;;;6274207;28;20033;-78
2024/03/08 10:45:48;;;;;;;3.13;2.00;;;;;;;;;;6277793;28;20356;-78
2024/03/08 10:48:52;;;;;;;4.07;1.80;;;;;;;;;;6275357;28;20107;-78
2024/03/08 10:51:56;;;;;;;2.80;2.20;;;;;;;;;;6280582;28;20542;-77
2024/03/08 10:55:01;;;;;;;2.50;1.90;;;;;;;;;;6275356;28;20060;-78
2024/03/08 10:58:04;;;;;;;2.30;1.58;;;;;;;;;;6262164;28;20437;-77
2024/03/08 11:01:06;;;;;;;7.85;2.60;;;;;;;;;;6256565;28;20518;-77
2024/03/08 11:04:09;;;;;;;6.82;3.40;;;;;;;;;;6267132;28;20077;-77
2024/03/08 11:07:18;;;;;;;5.35;2.80;;;;;;;;;;6279259;28;20057;-77
2024/03/08 11:10:20;;;;;;;4.32;2.53;;;;;;;;;;6275555;28;20040;-77
2024/03/08 11:13:43;;;;;;;3.40;2.00;;;;;;;;;;6289183;28;20099;-78
2024/03/08 11:16:45;;;;;;;2.75;1.42;;;;;;;;;;6275367;28;20078;-78
2024/03/08 11:19:48;;;;;;;2.95;1.98;;;;;;;;;;6254116;28;20041;-78
2024/03/08 11:23:04;;;;;;;3.70;1.98;;;;;;;;;;6284435;28;20048;-79
2024/03/08 11:26:23;;;;;;;3.20;1.90;;;;;;;;;;6238915;28;20049;-77
2024/03/08 11:29:32;;;;;;;3.45;2.03;;;;;;;;;;6260819;28;20055;-78
2024/03/08 11:32:36;;;;;;;4.68;2.08;;;;;;;;;;6281882;28;20071;-78
2024/03/08 11:35:39;;;;;;;3.40;1.85;;;;;;;;;;6271154;28;20140;-77
2024/03/08 11:38:44;;;;;;;4.30;2.28;;;;;;;;;;6274256;28;20033;-78
2024/03/08 11:41:46;;;;;;;4.18;2.28;;;;;;;;;;6275146;28;20108;-77
2024/03/08 11:44:50;;;;;;;3.03;1.60;;;;;;;;;;6261266;28;20045;-77
2024/03/08 11:47:55;;;;;;;3.25;1.90;;;;;;;;;;6276220;28;20044;-77
2024/03/08 11:51:04;;;;;;;3.85;2.03;;;;;;;;;;6270269;28;20033;-78
2024/03/08 11:54:14;;;;;;;4.05;2.78;;;;;;;;;;6272802;28;20037;-77
2024/03/08 11:57:28;;;;;;;4.10;2.40;;;;;;;;;;6286943;28;20033;-77
2024/03/08 12:00:38;;;;;;;4.32;1.95;;;;;;;;;;6253718;28;20045;-84
2024/03/08 12:03:42;;;;;;;3.13;1.70;;;;;;;;;;6249239;28;20076;-78
2024/03/08 12:06:48;;;;;;;2.90;1.58;;;;;;;;;;6282810;28;20056;-78
2024/03/08 12:10:17;;;;;;;3.25;1.15;;;;;;;;;;6283559;28;20071;-77
2024/03/08 12:13:22;;;;;;;2.45;1.30;;;;;;;;;;6269448;28;20041;-77
2024/03/08 12:16:24;;;;;;;2.60;2.15;;;;;;;;;;6279563;28;20037;-77
2024/03/08 12:19:28;;;;;;;2.78;1.60;;;;;;;;;;6262353;28;20049;-78
2024/03/08 12:22:31;;;;;;;2.70;1.60;;;;;;;;;;6229722;28;20542;-76
2024/03/08 12:25:36;;;;;;;4.53;1.55;;;;;;;;;;6268941;28;20037;-80
2024/03/08 12:28:41;;;;;;;2.58;1.30;;;;;;;;;;6221746;28;20069;-78
2024/03/08 12:31:47;;;;;;;2.80;1.92;;;;;;;;;;6247868;28;20623;-78
2024/03/08 12:34:53;;;;;;;2.88;1.75;;;;;;;;;;6234207;28;20041;-78
2024/03/08 12:37:57;;;;;;;5.00;1.40;;;;;;;;;;6239932;28;20056;-78
2024/03/08 12:41:00;;;;;;;4.32;1.52;;;;;;;;;;6252786;28;20116;-77
2024/03/08 12:44:07;;;;;;;2.65;2.20;;;;;;;;;;6258160;28;20066;-77
2024/03/08 12:47:10;;;;;;;3.58;2.10;;;;;;;;;;6265326;28;20115;-77
2024/03/08 12:50:16;;;;;;;1.98;1.25;;;;;;;;;;6275226;28;20535;-77
2024/03/08 12:53:19;;;;;;;2.15;1.70;;;;;;;;;;6273678;28;20036;-78
2024/03/08 12:56:30;;;;;;;3.13;2.03;;;;;;;;;;6240679;28;20647;-78
2024/03/08 12:59:32;;;;;;;2.35;1.30;;;;;;;;;;6248311;28;20051;-78
2024/03/08 13:02:35;;;;;;;3.30;1.10;;;;;;;;;;6238741;28;20123;-76
2024/03/08 13:05:39;;;;;;;3.38;1.75;;;;;;;;;;6251622;28;20053;-76
2024/03/08 13:08:43;;;;;;;4.20;2.40;;;;;;;;;;6257171;28;20074;-77
2024/03/08 13:11:46;;;;;;;2.13;1.25;;;;;;;;;;6249499;28;20098;-77
2024/03/08 13:14:50;;;;;;;3.75;1.70;;;;;;;;;;6245103;28;20036;-77
2024/03/08 13:17:52;;;;;;;3.83;2.30;;;;;;;;;;6247542;28;20153;-77
2024/03/08 13:20:57;;;;;;;2.67;2.13;;;;;;;;;;6273107;28;20052;-77
2024/03/08 13:24:01;;;;;;;2.97;1.10;;;;;;;;;;6252492;28;20052;-78
2024/03/08 13:27:16;;;;;;;2.05;1.08;;;;;;;;;;6248021;28;20033;-77
2024/03/08 13:30:23;;;;;;;2.85;2.00;;;;;;;;;;6273757;28;20057;-78
2024/03/08 13:33:27;;;;;;;2.63;1.58;;;;;;;;;;6263547;28;20052;-78
2024/03/08 13:36:38;;;;;;;2.20;1.52;;;;;;;;;;6277880;28;20143;-77
2024/03/08 13:39:45;;;;;;;2.05;1.30;;;;;;;;;;6259684;28;20076;-77
2024/03/08 13:42:49;;;;;;;2.47;1.40;;;;;;;;;;6272326;28;20053;-77
2024/03/08 13:45:54;;;;;;;2.55;1.67;;;;;;;;;;6247532;28;20073;-76
2024/03/08 13:49:09;;;;;;;5.53;1.55;;;;;;;;;;6254722;28;20049;-75
2024/03/08 13:52:14;;;;;;;2.10;1.30;;;;;;;;;;6253592;28;20074;-76
2024/03/08 13:55:18;;;;;;;2.33;1.23;;;;;;;;;;6256549;28;20049;-78
2024/03/08 13:58:20;;;;;;;3.17;1.08;;;;;;;;;;6270807;28;20060;-76
2024/03/08 14:01:23;;;;;;;2.10;1.42;;;;;;;;;;6253206;28;20040;-75
2024/03/08 14:04:26;;;;;;;2.20;1.25;;;;;;;;;;6255393;28;20096;-80
2024/03/08 14:07:30;;;;;;;2.75;1.98;;;;;;;;;;6270040;28;20106;-78
2024/03/08 14:10:32;;;;;;;2.55;1.77;;;;;;;;;;6257591;28;20061;-79
2024/03/08 14:13:35;;;;;;;2.53;1.27;;;;;;;;;;6223302;28;20068;-79
2024/03/08 14:16:37;;;;;;;2.10;1.45;;;;;;;;;;6239651;28;20040;-78
2024/03/08 14:19:39;;;;;;;1.92;1.13;;;;;;;;;;6251753;28;20061;-78
2024/03/08 14:22:42;;;;;;;2.15;0.93;;;;;;;;;;6264212;28;20793;-77
2024/03/08 14:25:46;;;;;;;1.98;1.17;;;;;;;;;;6260557;28;20735;-77
2024/03/08 14:28:51;;;;;;;2.95;1.70;;;;;;;;;;6233300;28;20422;-78
2024/03/08 14:31:57;;;;;;;2.83;1.50;;;;;;;;;;6269875;28;20186;-79
2024/03/08 14:35:01;;;;;;;4.00;0.98;;;;;;;;;;6260245;28;20044;-80
2024/03/08 14:38:03;;;;;;;2.97;1.00;;;;;;;;;;6243668;28;20041;-77
2024/03/08 14:41:07;;;;;;;1.75;1.02;;;;;;;;;;6256912;28;20656;-76
2024/03/08 14:44:09;;;;;;;2.50;1.35;;;;;;;;;;6233591;28;20864;-76
2024/03/08 14:47:11;;;;;;;2.17;1.10;;;;;;;;;;6254792;28;20041;-76
2024/03/08 14:50:14;;;;;;;2.75;1.73;;;;;;;;;;6240138;28;20646;-75
2024/03/08 14:53:18;;;;;;;3.95;1.55;;;;;;;;;;6255215;28;20033;-76
2024/03/08 14:56:23;;;;;;;3.78;1.58;;;;;;;;;;6271254;28;20045;-76
2024/03/08 14:59:29;;;;;;;2.60;1.55;;;;;;;;;;6246750;28;20048;-75
2024/03/08 15:02:36;;;;;;;3.72;2.53;;;;;;;;;;6267289;28;20070;-75
2024/03/08 15:05:42;;;;;;;2.92;1.75;;;;;;;;;;6253609;28;20056;-76
2024/03/08 15:08:44;;;;;;;3.22;1.75;;;;;;;;;;6238764;28;20059;-76
2024/03/08 15:11:49;;;;;;;3.67;1.83;;;;;;;;;;6244756;28;20080;-76
2024/03/08 15:14:52;;;;;;;;;;;;;;;;;;6242380;28;20045;-76
2024/03/08 15:17:58;;;;;;;3.70;2.58;;;;;;;;;;6274750;28;20614;-77
2024/03/08 15:21:08;;;;;;;3.53;1.77;;;;;;;;;;6260050;28;20056;-76
2024/03/08 15:24:15;;;;;;;4.03;3.00;;;;;;;;;;6271959;28;20103;-76
2024/03/08 15:27:18;;;;;;;5.20;4.70;;;;;;;;;;6251901;28;20107;-76
2024/03/08 15:30:30;;;;;;;2.33;1.50;;;;;;;;;;6237075;28;20218;-76
2024/03/08 15:33:44;;;;;;;3.20;1.95;;;;;;;;;;6247559;28;20052;-76
2024/03/08 15:36:49;;;;;;;10.30;2.70;;;;;;;;;;6248070;28;20049;-76
2024/03/08 15:39:56;;;;;;;3.53;2.33;;;;;;;;;;6249224;28;20056;-78
2024/03/08 15:42:59;;;;;;;4.30;3.88;;;;;;;;;;6253603;28;20132;-77
2024/03/08 15:46:04;;;;;;;3.97;2.35;;;;;;;;;;6260620;28;20048;-77
2024/03/08 15:49:07;;;;;;;5.53;3.30;;;;;;;;;;6253830;28;20137;-77
2024/03/08 15:52:09;;;;;;;5.78;3.20;;;;;;;;;;6246615;28;20080;-77
2024/03/08 15:55:19;;;;;;;5.00;3.28;;;;;;;;;;6257165;28;20701;-77
2024/03/08 15:58:21;;;;;;;4.47;2.13;;;;;;;;;;6256796;28;20229;-76
2024/03/08 16:01:24;;;;;;;3.28;2.70;;;;;;;;;;6265274;28;20049;-77
2024/03/08 16:04:27;;;;;;;3.58;2.53;;;;;;;;;;6247831;28;20048;-78
2024/03/08 16:07:30;;;;;;;3.58;2.90;;;;;;;;;;6264570;28;20049;-77
2024/03/08 16:10:33;;;;;;;4.68;2.15;;;;;;;;;;6279906;28;20128;-79
2024/03/08 16:13:38;;;;;;;3.30;1.90;;;;;;;;;;6285575;28;20049;-78
2024/03/08 16:16:48;;;;;;;3.55;1.95;;;;;;;;;;6268876;28;20124;-77
2024/03/08 16:19:54;;;;;;;3.25;2.22;;;;;;;;;;6253749;28;20084;-77
2024/03/08 16:22:58;;;;;;;6.32;5.32;;;;;;;;;;6280077;28;20064;-77
2024/03/08 16:26:00;;;;;;;6.47;4.88;;;;;;;;;;6288588;28;20052;-80
2024/03/08 16:29:03;;;;;;;5.15;3.83;;;;;;;;;;6277737;28;20116;-79
2024/03/08 16:32:08;;;;;;;5.03;3.38;;;;;;;;;;6273849;28;20039;-79
2024/03/08 16:35:11;;;;;;;3.78;2.58;;;;;;;;;;6265453;28;20045;-78
2024/03/08 16:38:14;;;;;;;4.32;2.75;;;;;;;;;;6285051;28;20040;-79
2024/03/08 16:41:18;;;;;;;6.03;5.43;;;;;;;;;;6278360;28;20068;-78
2024/03/08 16:44:24;;;;;;;5.72;3.53;;;;;;;;;;6275764;28;20655;-78
2024/03/08 16:47:27;;;;;;;7.63;5.13;;;;;;;;;;6279242;28;20033;-77
2024/03/08 16:50:33;;;;;;;14.52;8.55;;;;;;;;;;6300902;28;20128;-79
2024/03/08 16:53:40;;;;;;;16.98;12.38;;;;;;;;;;6259364;28;20095;-78
2024/03/08 16:56:44;;;;;;;22.58;14.50;;;;;;;;;;6287087;28;20112;-79
2024/03/08 16:59:47;;;;;;;21.58;14.05;;;;;;;;;;6281952;28;20075;-79
2024/03/08 17:02:49;;;;;;;13.15;8.80;;;;;;;;;;6272871;28;20104;-78
2024/03/08 17:05:58;;;;;;;7.47;4.50;;;;;;;;;;6293638;28;20064;-79
2024/03/08 17:09:00;;;;;;;24.63;19.20;;;;;;;;;;6287475;28;20632;-78
2024/03/08 17:12:04;;;;;;;19.25;13.57;;;;;;;;;;6286461;28;20056;-80
2024/03/08 17:15:10;;;;;;;8.43;5.30;;;;;;;;;;6281849;28;20099;-78
2024/03/08 17:18:15;;;;;;;9.93;4.82;;;;;;;;;;6288707;28;20040;-80
2024/03/08 17:21:50;;;;;;;9.77;6.35;;;;;;;;;;6295151;28;20075;-78
2024/03/08 17:24:54;;;;;;;9.65;6.45;;;;;;;;;;6285041;28;20112;-80
2024/03/08 17:28:00;;;;;;;11.20;7.22;;;;;;;;;;6298066;28;20045;-78
2024/03/08 17:31:11;;;;;;;18.10;12.00;;;;;;;;;;6285185;28;20112;-79
2024/03/08 17:34:17;;;;;;;10.18;6.80;;;;;;;;;;6285179;28;20045;-79
2024/03/08 17:37:20;;;;;;;13.98;10.18;;;;;;;;;;6297319;28;20041;-80
2024/03/08 17:40:26;;;;;;;6.88;5.00;;;;;;;;;;6308829;28;20055;-79
2024/03/08 17:43:30;;;;;;;5.65;3.80;;;;;;;;;;6295365;28;20060;-81
2024/03/08 17:46:37;;;;;;;7.63;3.33;;;;;;;;;;6272333;28;20036;-78
2024/03/08 17:49:40;;;;;;;6.55;4.30;;;;;;;;;;6284564;28;20468;-81
2024/03/08 17:52:46;;;;;;;7.30;5.00;;;;;;;;;;6237654;28;20186;-80
2024/03/08 17:55:51;;;;;;;6.57;4.85;;;;;;;;;;6245455;28;20144;-82
2024/03/08 17:58:55;;;;;;;7.07;3.92;;;;;;;;;;6271408;28;20662;-82
2024/03/08 18:01:57;;;;;;;6.47;5.22;;;;;;;;;;6301969;28;20774;-81
2024/03/08 18:05:04;;;;;;;7.03;4.20;;;;;;;;;;6268551;28;20041;-80
2024/03/08 18:08:06;;;;;;;7.45;4.60;;;;;;;;;;6273975;28;20056;-81
2024/03/08 18:11:15;;;;;;;5.95;4.65;;;;;;;;;;6285006;28;20043;-81
2024/03/08 18:14:18;;;;;;;9.20;4.07;;;;;;;;;;6273093;28;20045;-80
2024/03/08 18:17:20;;;;;;;6.05;3.75;;;;;;;;;;6265162;28;20041;-81
2024/03/08 18:20:31;;;;;;;6.85;4.07;;;;;;;;;;6283251;28;20822;-81
2024/03/08 18:23:33;;;;;;;;;;;;;;;;;;6266420;28;20656;-82
2024/03/08 18:26:40;;;;;;;12.25;7.47;;;;;;;;;;6257245;28;20713;-81
2024/03/08 18:29:42;;;;;;;13.50;9.23;;;;;;;;;;6282725;28;20044;-79